Time;durP1;ratioP1;P1;durP2;ratioP2;P2;SDS_P1;SDS_P2;PMS_P1;PMS_P2;Temp;Humidity;BMP_temperature;BMP_pressure;BME280_temperature;BME280_humidity;BME280_pressure;Samples;Min_cycle;Max_cycle;Signal;HPM_P1;HPM_P2
2023/05/16 00:00:17;;;;;;;;;5.50;4.75;;;;;11.93;69.65;101599.03;4883640;29;45557;-62
2023/05/16 00:02:43;;;;;;;;;4.75;3.00;;;;;12.02;69.51;101622.91;4888814;29;45483;-62
2023/05/16 00:05:15;;;;;;;;;6.25;5.00;;;;;12.01;69.76;101624.72;4889215;28;45557;-62
2023/05/16 00:07:45;;;;;;;;;3.00;3.00;;;;;12.13;69.15;101657.41;4882671;29;45464;-62
2023/05/16 00:10:10;;;;;;;;;4.25;4.25;;;;;11.95;69.57;101622.16;4883742;29;45519;-62
2023/05/16 00:12:38;;;;;;;;;7.00;4.00;;;;;11.93;69.59;101633.81;4882377;29;45798;-62
2023/05/16 00:15:11;;;;;;;;;3.50;3.00;;;;;12.12;69.55;101656.53;4882118;29;47205;-62
2023/05/16 00:17:37;;;;;;;;;2.50;2.25;;;;;11.98;69.94;101640.84;4882707;29;45558;-62
2023/05/16 00:20:09;;;;;;;;;4.00;2.25;;;;;11.89;69.33;101624.94;4898015;29;45482;-62
2023/05/16 00:22:37;;;;;;;;;5.25;4.00;;;;;12.00;69.28;101659.53;4874645;29;45397;-62
2023/05/16 00:25:03;;;;;;;;;5.75;3.25;;;;;12.00;69.52;101667.56;4879755;29;45316;-62
2023/05/16 00:27:29;;;;;;;;;3.25;3.00;;;;;11.87;69.57;101642.84;4896908;29;45560;-62
2023/05/16 00:29:55;;;;;;;;;4.00;4.00;;;;;11.73;69.57;101619.09;4885840;29;45506;-62
2023/05/16 00:32:20;;;;;;;;;5.75;3.00;;;;;11.62;68.95;101616.66;4882740;29;45577;-61
2023/05/16 00:34:46;;;;;;;;;2.00;2.00;;;;;11.68;69.53;101626.34;4883464;29;46366;-62
2023/05/16 00:37:12;;;;;;;;;4.00;3.00;;;;;11.55;69.25;101598.13;4882472;29;45692;-62
2023/05/16 00:39:45;;;;;;;;;4.00;2.00;;;;;11.70;69.74;101637.88;4897402;29;45700;-62
2023/05/16 00:42:10;;;;;;;;;5.25;3.00;;;;;11.67;69.85;101627.25;4883579;29;45540;-62
2023/05/16 00:44:36;;;;;;;;;1.00;1.00;;;;;11.64;69.38;101630.00;4883054;29;45495;-62
2023/05/16 00:47:03;;;;;;;;;4.00;3.25;;;;;11.44;69.66;101601.03;4881328;29;45381;-62
2023/05/16 00:49:29;;;;;;;;;6.00;4.00;;;;;11.72;69.80;101645.88;4881845;29;45348;-62
2023/05/16 00:51:57;;;;;;;;;4.00;2.75;;;;;11.52;69.65;101616.91;4881082;29;45483;-62
2023/05/16 00:54:28;;;;;;;;;1.00;0.75;;;;;11.54;69.56;101615.94;4882917;29;46562;-62
2023/05/16 00:56:54;;;;;;;;;4.00;3.75;;;;;11.57;69.88;101623.03;4880857;29;45613;-62
2023/05/16 00:59:19;;;;;;;;;3.50;1.75;;;;;11.76;69.53;101655.56;4881469;29;45540;-61
2023/05/16 01:01:46;;;;;;;;;3.50;3.50;;;;;11.63;69.77;101647.84;4883086;29;45357;-62
2023/05/16 01:04:12;;;;;;;;;4.00;3.00;;;;;11.46;69.37;101626.81;4881515;29;47271;-62
2023/05/16 01:06:38;;;;;;;;;3.00;2.75;;;;;11.63;69.67;101653.19;4880505;29;45680;-62
2023/05/16 01:09:05;;;;;;;;;3.25;2.75;;;;;11.19;69.60;101590.00;4882943;29;45328;-62
2023/05/16 01:11:47;;;;;;;;;5.00;3.00;;;;;11.40;69.62;101624.28;4881292;29;45765;-62
2023/05/16 01:14:44;;;;;;;;;1.00;1.00;;;;;11.43;69.51;101628.69;4881106;29;45459;-62
2023/05/16 01:17:32;;;;;;;;;2.50;2.50;;;;;11.55;70.13;101655.16;4883518;29;45328;-62
2023/05/16 01:20:16;;;;;;;;;3.00;3.00;;;;;11.42;69.55;101641.16;4882804;29;45344;-61
2023/05/16 01:22:47;;;;;;;;;3.25;3.00;;;;;11.58;69.68;101667.59;4880328;29;45385;-62
2023/05/16 01:26:15;;;;;;;;;4.00;3.00;;;;;11.22;69.73;101605.97;4882511;29;45415;-62
2023/05/16 01:28:44;;;;;;;;;5.00;4.25;;;;;11.32;69.90;101626.22;4837153;29;45739;-62
2023/05/16 01:31:09;;;;;;;;;4.00;3.00;;;;;11.41;70.03;101644.75;4827419;29;45520;-62
2023/05/16 01:33:35;;;;;;;;;5.00;2.00;;;;;11.47;69.52;101667.81;4863063;29;45408;-62
2023/05/16 01:36:10;;;;;;;;;2.00;2.00;;;;;11.35;69.81;101646.69;4881123;29;46133;-62
2023/05/16 01:38:40;;;;;;;;;1.25;1.25;;;;;11.38;69.97;101660.00;4880158;29;45541;-61
2023/05/16 01:41:20;;;;;;;;;10.50;1.75;;;;;11.44;70.01;101659.84;4882833;29;45426;-62
2023/05/16 01:43:53;;;;;;;;;2.25;2.25;;;;;11.36;69.70;101649.31;4882772;29;45482;-62
2023/05/16 01:46:24;;;;;;;;;3.00;2.50;;;;;11.24;69.49;101650.47;4881780;29;45636;-62
2023/05/16 01:49:04;;;;;;;;;3.00;2.50;;;;;11.39;69.90;101670.63;4883077;29;45459;-62
2023/05/16 01:51:34;;;;;;;;;3.50;2.00;;;;;11.08;69.87;101617.81;4879084;29;45410;-61
2023/05/16 01:54:08;;;;;;;;;3.25;2.00;;;;;11.25;69.83;101646.00;4885641;29;45349;-62
2023/05/16 01:56:44;;;;;;;;;4.25;2.25;;;;;11.35;69.99;101662.72;4884848;29;46180;-61
2023/05/16 01:59:13;;;;;;;;;2.50;2.00;;;;;11.24;69.84;101652.25;4884159;29;45469;-62
2023/05/16 02:01:38;;;;;;;;;4.25;1.75;;;;;11.38;69.66;101671.56;4885747;29;45407;-62
2023/05/16 02:04:04;;;;;;;;;2.00;2.00;;;;;11.39;69.80;101667.06;4897450;29;45404;-62
2023/05/16 02:06:29;;;;;;;;;2.00;1.50;;;;;11.23;69.84;101645.16;4880383;29;45714;-61
2023/05/16 02:08:55;;;;;;;;;3.75;3.75;;;;;11.13;69.33;101623.06;4884317;29;45474;-62
2023/05/16 02:11:22;;;;;;;;;3.00;1.25;;;;;11.11;69.17;101638.28;4885599;29;45861;-62
2023/05/16 02:13:47;;;;;;;;;2.00;2.00;;;;;11.29;69.51;101682.44;4885248;29;45725;-62
2023/05/16 02:16:13;;;;;;;;;1.25;1.25;;;;;11.20;69.49;101662.13;4889278;29;47348;-61
2023/05/16 02:18:41;;;;;;;;;2.00;2.00;;;;;11.26;69.40;101683.38;4885118;29;45435;-61
2023/05/16 02:21:09;;;;;;;;;3.00;2.00;;;;;11.03;69.61;101648.22;4885358;29;45332;-62
2023/05/16 02:23:34;;;;;;;;;3.00;2.50;;;;;11.13;69.41;101668.50;4872324;29;45463;-62
2023/05/16 02:26:00;;;;;;;;;4.00;2.00;;;;;10.93;69.42;101652.88;4884961;29;45430;-61
2023/05/16 02:28:27;;;;;;;;;2.75;2.00;;;;;10.90;69.81;101652.91;4885573;29;45415;-62
2023/05/16 02:31:00;;;;;;;;;2.50;2.00;;;;;10.88;69.61;101652.94;4883734;29;45588;-62
2023/05/16 02:33:27;;;;;;;;;2.50;2.25;;;;;10.70;70.08;101627.47;4884069;29;45516;-62
2023/05/16 02:35:53;;;;;;;;;3.00;1.25;;;;;11.02;70.18;101671.38;4883714;29;45521;-62
2023/05/16 02:38:20;;;;;;;;;1.00;1.00;;;;;10.98;70.03;101650.97;4882946;29;45653;-62
2023/05/16 02:40:46;;;;;;;;;3.25;2.25;;;;;10.98;69.68;101655.44;4885344;29;45442;-62
2023/05/16 02:43:12;;;;;;;;;2.00;2.00;;;;;11.08;69.78;101662.38;4883471;29;45801;-62
2023/05/16 02:45:37;;;;;;;;;3.25;1.75;;;;;11.13;69.93;101680.06;4885204;29;45584;-62
2023/05/16 02:48:03;;;;;;;;;4.50;3.00;;;;;10.95;69.78;101651.03;4882059;29;45441;-62
2023/05/16 02:50:29;;;;;;;;;2.00;1.75;;;;;10.90;70.01;101653.78;4884432;29;45518;-62
2023/05/16 02:52:54;;;;;;;;;6.00;2.00;;;;;11.13;69.52;101681.88;4884809;29;45831;-62
2023/05/16 02:55:20;;;;;;;;;1.75;1.75;;;;;11.02;69.69;101663.34;4884962;29;45617;-62
2023/05/16 02:57:45;;;;;;;;;3.00;3.00;;;;;10.98;69.86;101675.03;4898506;28;45423;-62
2023/05/16 03:00:11;;;;;;;;;5.75;1.50;;;;;11.11;70.15;101689.91;4884909;29;45472;-61
2023/05/16 03:02:37;;;;;;;;;1.50;1.50;;;;;10.85;69.72;101649.47;4890466;29;45370;-61
2023/05/16 03:05:04;;;;;;;;;4.00;2.00;;;;;11.06;69.67;101690.88;4890994;28;45382;-62
2023/05/16 03:07:29;;;;;;;;;3.75;2.25;;;;;10.90;70.11;101668.94;4879675;29;45317;-62
2023/05/16 03:09:54;;;;;;;;;2.50;2.25;;;;;10.94;69.79;101667.97;4884811;29;45466;-62
2023/05/16 03:12:20;;;;;;;;;3.00;2.00;;;;;11.09;69.90;101686.41;4898912;29;45787;-62
2023/05/16 03:14:46;;;;;;;;;1.75;1.00;;;;;10.85;69.98;101657.47;4884490;29;45418;-62
2023/05/16 03:17:13;;;;;;;;;4.00;1.25;;;;;11.13;69.88;101698.78;4881694;29;45725;-62
2023/05/16 03:19:39;;;;;;;;;1.25;1.25;;;;;10.92;69.85;101664.44;4882896;29;45766;-62
2023/05/16 03:22:07;;;;;;;;;3.00;2.00;;;;;11.04;70.13;101682.94;4893943;29;45736;-62
2023/05/16 03:24:41;;;;;;;;;2.25;1.75;;;;;11.23;69.54;101717.31;4876899;29;45405;-62
2023/05/16 03:27:07;;;;;;;;;3.50;2.00;;;;;11.01;69.58;101683.00;4870170;29;45426;-62
2023/05/16 03:29:32;;;;;;;;;3.00;2.00;;;;;11.18;69.64;101706.72;4885237;29;45472;-63
2023/05/16 03:31:57;;;;;;;;;5.75;1.00;;;;;11.01;69.67;101684.75;4883988;29;45402;-62
2023/05/16 03:34:23;;;;;;;;;3.00;2.00;;;;;11.03;69.79;101696.31;4883869;29;45506;-62
2023/05/16 03:36:51;;;;;;;;;2.00;1.75;;;;;11.01;70.05;101687.44;4896507;29;45668;-62
2023/05/16 03:39:17;;;;;;;;;3.00;1.25;;;;;11.02;69.79;101691.88;4884014;29;45340;-62
2023/05/16 03:41:42;;;;;;;;;2.00;2.00;;;;;10.99;69.55;101703.47;4867227;29;45512;-61
2023/05/16 03:44:10;;;;;;;;;3.50;3.50;;;;;11.11;69.80;101724.66;4896193;29;46959;-62
2023/05/16 03:46:36;;;;;;;;;2.00;1.00;;;;;10.97;69.56;101693.75;4882354;29;45661;-62
2023/05/16 03:49:01;;;;;;;;;2.50;1.00;;;;;10.97;69.85;101696.44;4881170;29;45550;-62
2023/05/16 03:51:27;;;;;;;;;3.00;1.00;;;;;11.23;69.61;101746.72;4878899;29;45579;-62
2023/05/16 03:53:53;;;;;;;;;1.25;1.25;;;;;11.05;69.75;101723.88;4882246;29;46608;-62
2023/05/16 03:56:20;;;;;;;;;2.00;2.00;;;;;11.19;69.83;101747.66;4882562;29;45641;-62
2023/05/16 03:58:48;;;;;;;;;2.50;1.75;;;;;11.03;69.80;101712.34;4883136;29;45327;-62
2023/05/16 04:01:14;;;;;;;;;3.25;2.25;;;;;11.00;69.16;101721.28;4882712;29;45482;-62
2023/05/16 04:03:42;;;;;;;;;3.75;1.50;;;;;11.04;69.78;101728.34;4893651;29;47394;-61
2023/05/16 04:06:07;;;;;;;;;2.50;2.00;;;;;10.98;69.50;101719.56;4883005;29;45546;-62
2023/05/16 04:08:33;;;;;;;;;3.00;2.00;;;;;10.81;69.91;101690.47;4882166;29;45558;-62
2023/05/16 04:10:58;;;;;;;;;2.50;1.75;;;;;11.12;70.10;101752.25;4883008;29;45644;-61
2023/05/16 04:13:24;;;;;;;;;2.00;2.00;;;;;10.74;69.90;101685.25;4883051;29;45324;-61
2023/05/16 04:15:49;;;;;;;;;1.75;1.75;;;;;11.12;69.74;101752.25;4885179;29;45374;-61
2023/05/16 04:18:15;;;;;;;;;3.25;2.50;;;;;10.93;69.66;101720.53;4881649;29;45574;-61
2023/05/16 04:20:45;;;;;;;;;4.00;3.00;;;;;10.74;69.90;101685.25;4883160;29;45644;-62
2023/05/16 04:23:12;;;;;;;;;5.50;2.00;;;;;11.15;69.84;101749.50;4870574;29;46343;-61
2023/05/16 04:25:37;;;;;;;;;2.00;2.00;;;;;11.12;70.01;101754.91;4881958;29;45898;-61
2023/05/16 04:28:03;;;;;;;;;2.00;1.00;;;;;11.06;69.95;101761.25;4884553;29;45517;-61
2023/05/16 04:30:31;;;;;;;;;2.00;1.00;;;;;10.72;70.07;101694.19;4883278;29;45292;-62
2023/05/16 04:32:58;;;;;;;;;5.75;3.00;;;;;11.04;69.71;101751.50;4881864;29;48245;-61
2023/05/16 04:35:24;;;;;;;;;2.25;2.25;;;;;11.08;70.12;101755.91;4882209;29;45384;-61
2023/05/16 04:37:52;;;;;;;;;2.25;2.00;;;;;10.80;69.82;101727.00;4882396;29;45425;-62
2023/05/16 04:40:17;;;;;;;;;3.25;2.00;;;;;11.00;69.75;101756.03;4883392;29;45903;-61
2023/05/16 04:42:43;;;;;;;;;5.00;2.00;;;;;10.86;70.13;101737.56;4881789;29;46929;-61
2023/05/16 04:45:13;;;;;;;;;3.75;3.00;;;;;10.74;69.70;101724.41;4882840;29;45524;-62
2023/05/16 04:47:41;;;;;;;;;4.50;2.75;;;;;11.01;70.17;101767.56;4880907;29;45507;-61
2023/05/16 04:50:10;;;;;;;;;4.50;1.75;;;;;10.83;69.89;101750.09;4879817;29;45571;-61
2023/05/16 04:52:36;;;;;;;;;2.25;1.75;;;;;10.99;69.78;101782.75;4881572;29;45924;-61
2023/05/16 04:55:03;;;;;;;;;2.00;2.00;;;;;10.83;70.28;101759.00;4879507;29;45346;-62
2023/05/16 04:57:28;;;;;;;;;4.00;2.00;;;;;10.80;69.92;101748.34;4882139;29;45438;-62
2023/05/16 04:59:54;;;;;;;;;2.75;2.75;;;;;10.82;69.90;101754.53;4881833;29;45377;-61
2023/05/16 05:02:19;;;;;;;;;4.00;2.00;;;;;10.73;69.91;101752.06;4883110;29;45612;-62
2023/05/16 05:04:45;;;;;;;;;3.00;3.00;;;;;10.86;70.18;101768.72;4882611;29;45374;-61
2023/05/16 05:07:11;;;;;;;;;3.50;3.50;;;;;10.79;69.93;101762.59;4881622;29;45375;-61
2023/05/16 05:09:36;;;;;;;;;4.00;2.50;;;;;10.82;69.94;101780.38;4880409;29;45801;-61
2023/05/16 05:12:02;;;;;;;;;5.00;3.00;;;;;10.75;70.28;101761.78;4882680;29;46373;-62
2023/05/16 05:14:27;;;;;;;;;3.25;3.00;;;;;10.74;69.99;101770.72;4882821;29;45473;-62
2023/05/16 05:16:53;;;;;;;;;5.00;3.00;;;;;10.73;69.78;101763.59;4883423;29;45447;-62
2023/05/16 05:19:19;;;;;;;;;2.50;2.50;;;;;10.54;70.37;101732.75;4881111;29;45441;-61
2023/05/16 05:21:44;;;;;;;;;5.75;4.00;;;;;10.71;70.52;101772.56;4881133;29;47211;-61
2023/05/16 05:24:10;;;;;;;;;2.25;2.25;;;;;10.94;70.55;101794.41;4884978;29;45379;-61
2023/05/16 05:26:38;;;;;;;;;2.75;2.25;;;;;10.87;70.47;101790.06;4885113;29;45505;-62
2023/05/16 05:29:03;;;;;;;;;3.75;3.00;;;;;10.81;70.55;101775.94;4878851;29;45617;-62
2023/05/16 05:31:29;;;;;;;;;2.75;2.75;;;;;10.97;70.36;101817.50;4878432;29;45956;-61
2023/05/16 05:33:55;;;;;;;;;4.00;3.00;;;;;10.79;70.36;101775.09;4882832;29;45442;-61
2023/05/16 05:36:21;;;;;;;;;4.00;4.00;;;;;10.56;70.17;101733.66;4881567;29;45398;-62
2023/05/16 05:38:46;;;;;;;;;4.50;3.00;;;;;10.87;70.56;101795.41;4896995;28;45664;-61
2023/05/16 05:41:13;;;;;;;;;3.75;2.00;;;;;10.62;70.39;101754.00;4885313;29;45449;-62
2023/05/16 05:43:38;;;;;;;;;3.75;2.75;;;;;10.79;70.53;101777.75;4884886;29;45383;-62
2023/05/16 05:46:04;;;;;;;;;3.50;2.00;;;;;10.69;70.48;101764.56;4884510;29;45284;-61
2023/05/16 05:48:31;;;;;;;;;1.75;1.75;;;;;10.70;70.30;101765.44;4881127;29;45291;-63
2023/05/16 06:08:59;;;;;;;;;2.00;2.00;;;;;11.00;69.54;101820.13;4981213;23;45267;-79
2023/05/16 06:11:25;;;;;;;;;4.00;2.50;;;;;10.99;69.56;101821.03;4868628;29;45246;-77
2023/05/16 06:13:51;;;;;;;;;5.00;2.00;;;;;11.04;69.48;101816.53;4859264;29;45200;-77
2023/05/16 06:16:16;;;;;;;;;3.00;3.00;;;;;11.04;69.10;101832.56;4866570;29;45381;-76
2023/05/16 06:18:42;;;;;;;;;2.50;1.75;;;;;11.03;69.11;101836.13;4866335;29;52008;-80
2023/05/16 06:21:08;;;;;;;;;4.75;3.50;;;;;11.03;69.00;101830.78;4866361;29;45434;-80
2023/05/16 06:23:34;;;;;;;;;3.00;2.00;;;;;11.04;69.42;101828.97;4866751;29;45466;-77
2023/05/16 06:26:00;;;;;;;;;2.25;2.00;;;;;11.08;69.15;101823.56;4866702;29;45339;-77
2023/05/16 06:28:27;;;;;;;;;4.75;3.00;;;;;11.11;68.65;101822.66;4863667;29;45345;-80
2023/05/16 06:30:53;;;;;;;;;2.75;1.00;;;;;11.16;68.40;101828.78;5166096;23;45553;-77
2023/05/16 06:33:18;;;;;;;;;1.00;1.00;;;;;11.16;68.66;101825.22;4846381;29;45532;-76
2023/05/16 06:35:44;;;;;;;;;3.75;2.75;;;;;11.06;68.26;101805.78;4845182;29;47922;-80
2023/05/16 06:38:09;;;;;;;;;3.50;2.00;;;;;11.30;68.59;101844.56;4846277;29;45337;-80
2023/05/16 06:40:34;;;;;;;;;4.00;2.00;;;;;11.20;67.96;101830.47;4845121;29;46957;-80
2023/05/16 06:43:00;;;;;;;;;2.00;1.75;;;;;11.29;68.02;101848.16;4841586;29;45428;-79
2023/05/16 06:45:25;;;;;;;;;1.50;1.50;;;;;11.30;67.83;101852.59;4847265;29;46487;-79
2023/05/16 06:47:51;;;;;;;;;3.00;2.00;;;;;11.26;67.60;101846.44;4844691;29;45372;-79
2023/05/16 06:50:16;;;;;;;;;2.00;2.00;;;;;11.36;67.92;101852.50;4844009;29;45364;-77
2023/05/16 06:52:41;;;;;;;;;2.50;1.25;;;;;11.29;67.21;101845.47;4847711;29;45260;-77
2023/05/16 06:55:07;;;;;;;;;1.50;1.00;;;;;11.32;67.73;101848.97;4846212;29;45941;-79
2023/05/16 06:57:33;;;;;;;;;1.00;1.00;;;;;11.36;67.78;101856.94;4846264;29;45318;-78
2023/05/16 06:59:58;;;;;;;;;1.00;1.00;;;;;11.29;67.92;101838.34;4847223;29;55193;-78
2023/05/16 07:02:23;;;;;;;;;3.00;2.00;;;;;11.38;67.16;101852.47;4847492;29;45436;-75
2023/05/16 07:04:49;;;;;;;;;4.00;2.00;;;;;11.44;67.34;101858.59;4851231;29;45762;-75
2023/05/16 07:07:14;;;;;;;;;4.25;1.75;;;;;11.47;67.67;101850.47;4853586;29;45287;-75
2023/05/16 07:09:40;;;;;;;;;5.00;4.00;;;;;11.55;67.12;101860.19;4846289;29;45386;-75
2023/05/16 07:12:05;;;;;;;;;3.00;1.75;;;;;11.57;67.38;101858.34;4844286;29;45509;-75
2023/05/16 07:14:31;;;;;;;;;2.75;1.00;;;;;11.62;67.02;101862.69;4838819;29;47122;-75
2023/05/16 07:16:56;;;;;;;;;3.50;1.00;;;;;11.65;66.67;101865.31;4843532;29;45643;-78
2023/05/16 07:19:21;;;;;;;;;6.75;2.00;;;;;11.71;66.91;101864.34;4846570;29;45426;-75
2023/05/16 07:21:47;;;;;;;;;2.00;2.00;;;;;11.73;66.67;101859.81;4844729;29;45349;-75
2023/05/16 07:24:12;;;;;;;;;1.50;1.50;;;;;11.73;66.58;101861.59;4846729;29;45531;-75
2023/05/16 07:26:37;;;;;;;;;2.50;1.75;;;;;11.68;66.24;101845.66;4843469;29;45725;-75
2023/05/16 07:29:03;;;;;;;;;2.00;2.00;;;;;11.79;66.55;101867.72;4846624;29;45524;-75
2023/05/16 07:31:29;;;;;;;;;2.00;0.50;;;;;11.86;66.81;101873.81;4844965;29;45340;-75
2023/05/16 07:33:55;;;;;;;;;1.00;0.00;;;;;11.91;66.66;101872.00;4845007;29;47550;-75
2023/05/16 07:36:20;;;;;;;;;3.50;1.00;;;;;11.97;65.59;101879.88;4844094;29;45760;-75
2023/05/16 07:38:46;;;;;;;;;3.00;2.00;;;;;12.03;65.51;101886.94;4841265;29;47830;-79
2023/05/16 07:41:11;;;;;;;;;1.50;0.50;;;;;12.03;65.60;101878.91;4845501;29;45443;-79
2023/05/16 07:43:36;;;;;;;;;2.25;2.25;;;;;12.09;65.30;101877.88;4841114;29;46199;-79
2023/05/16 07:46:02;;;;;;;;;3.00;3.00;;;;;12.02;65.26;101861.06;4844497;29;45506;-79
2023/05/16 07:48:27;;;;;;;;;1.00;1.00;;;;;12.06;65.62;101870.78;4846272;29;45412;-79
2023/05/16 07:50:54;;;;;;;;;3.50;1.00;;;;;12.17;65.73;101887.50;4843583;29;45365;-79
2023/05/16 07:53:20;;;;;;;;;5.00;2.00;;;;;12.25;66.01;101881.13;4856940;29;48386;-79
2023/05/16 07:55:45;;;;;;;;;3.25;2.00;;;;;12.26;65.68;101869.50;4845072;29;45343;-79
2023/05/16 07:58:10;;;;;;;;;1.50;1.00;;;;;12.36;65.27;101876.41;4845502;29;45249;-79
2023/05/16 08:00:36;;;;;;;;;2.00;1.00;;;;;12.44;64.96;101871.75;4845413;29;45326;-79
2023/05/16 08:03:02;;;;;;;;;3.00;1.00;;;;;12.45;64.40;101867.31;4845812;29;45767;-79
2023/05/16 08:05:28;;;;;;;;;1.00;1.00;;;;;12.44;64.29;101866.41;4845630;29;45475;-79
2023/05/16 08:07:53;;;;;;;;;4.00;1.25;;;;;12.48;64.49;101856.50;4845994;29;45495;-74
2023/05/16 08:10:18;;;;;;;;;2.00;2.00;;;;;12.54;64.23;101856.38;4845910;29;45378;-74
2023/05/16 08:12:45;;;;;;;;;2.00;1.00;;;;;12.60;64.07;101866.97;4844879;29;48258;-74
2023/05/16 08:15:10;;;;;;;;;1.00;1.00;;;;;12.63;63.35;101871.34;4848561;29;45696;-79
2023/05/16 08:17:37;;;;;;;;;3.50;1.25;;;;;12.63;62.97;101868.66;4844276;29;45668;-78
2023/05/16 08:20:02;;;;;;;;;4.25;1.25;;;;;12.65;63.04;101866.84;4859642;29;45599;-78
2023/05/16 08:22:28;;;;;;;;;2.00;1.75;;;;;12.69;63.55;101871.22;4842607;29;46353;-78
2023/05/16 08:24:56;;;;;;;;;1.00;0.00;;;;;12.72;63.33;101869.34;4845613;29;45880;-79
2023/05/16 08:27:25;;;;;;;;;1.00;1.00;;;;;12.77;63.16;101869.25;4843016;29;45441;-74
2023/05/16 08:29:51;;;;;;;;;4.00;1.00;;;;;12.85;63.11;101872.63;4844771;29;45545;-74
2023/05/16 08:32:16;;;;;;;;;2.25;1.00;;;;;12.79;62.47;101857.56;4844596;29;45927;-74
2023/05/16 08:34:41;;;;;;;;;2.00;2.00;;;;;12.95;61.71;101870.59;4844580;29;45320;-74
2023/05/16 08:37:07;;;;;;;;;4.50;1.00;;;;;12.98;61.93;101875.91;4843392;29;54181;-74
2023/05/16 08:39:32;;;;;;;;;1.00;1.00;;;;;13.00;61.53;101870.47;4847263;29;45379;-74
2023/05/16 08:41:59;;;;;;;;;1.00;1.00;;;;;13.00;61.46;101857.97;4841205;29;45579;-74
2023/05/16 08:44:24;;;;;;;;;3.00;1.00;;;;;13.03;61.21;101862.34;4847711;29;45508;-79
2023/05/16 08:46:51;;;;;;;;;3.00;0.50;;;;;13.01;61.33;101873.13;4843248;29;45566;-79
2023/05/16 08:49:17;;;;;;;;;1.50;0.00;;;;;12.95;61.08;101857.22;4852176;29;45488;-80
2023/05/16 08:51:45;;;;;;;;;1.25;1.00;;;;;13.07;61.76;101869.44;4845708;29;45482;-78
2023/05/16 08:54:12;;;;;;;;;3.00;2.00;;;;;13.15;62.32;101862.06;4860425;29;45311;-79
2023/05/16 08:56:38;;;;;;;;;1.50;1.00;;;;;13.14;61.21;101844.22;4845598;29;45484;-79
2023/05/16 08:59:03;;;;;;;;;1.00;1.00;;;;;13.29;61.15;101867.06;4860729;29;45407;-75
2023/05/16 09:01:33;;;;;;;;;1.00;1.00;;;;;13.32;60.63;101865.22;4862820;29;47302;-75
2023/05/16 09:03:59;;;;;;;;;1.00;1.00;;;;;13.43;60.67;101869.41;4855502;29;45419;-79
2023/05/16 09:06:26;;;;;;;;;1.50;1.00;;;;;13.45;60.58;101867.59;4846859;29;45411;-79
2023/05/16 09:08:52;;;;;;;;;1.75;1.75;;;;;13.48;58.88;101859.44;4857390;29;45425;-74
2023/05/16 09:11:18;;;;;;;;;1.00;1.00;;;;;13.50;59.31;101863.88;4846737;29;45664;-79
2023/05/16 09:13:43;;;;;;;;;1.75;1.75;;;;;13.52;58.91;101870.06;4847122;29;45290;-74
2023/05/16 09:16:14;;;;;;;;;2.00;2.00;;;;;13.49;59.04;101858.53;4848600;29;45363;-79
2023/05/16 09:18:42;;;;;;;;;2.00;2.00;;;;;13.56;58.26;101872.66;4853083;29;45519;-74
2023/05/16 09:21:10;;;;;;;;;0.00;0.00;;;;;13.56;58.85;101873.53;4848433;29;45422;-74
2023/05/16 09:23:35;;;;;;;;;2.50;1.00;;;;;13.59;58.63;101878.81;4848485;29;45288;-80
2023/05/16 09:26:02;;;;;;;;;2.00;1.00;;;;;13.59;58.52;101877.97;4846943;29;45259;-80
2023/05/16 09:28:27;;;;;;;;;0.00;0.00;;;;;13.61;58.60;101871.59;4844827;29;45579;-79
2023/05/16 09:30:53;;;;;;;;;1.25;1.00;;;;;13.65;58.74;101870.63;4841459;29;45410;-78
2023/05/16 09:33:22;;;;;;;;;0.75;0.75;;;;;13.69;58.59;101874.09;4845311;29;45302;-78
2023/05/16 09:35:58;;;;;;;;;1.00;1.00;;;;;13.75;58.01;101868.56;4846621;29;45315;-79
2023/05/16 09:38:26;;;;;;;;;1.50;1.00;;;;;13.82;57.61;101867.47;4850414;29;45480;-79
2023/05/16 09:40:52;;;;;;;;;1.00;1.00;;;;;13.88;57.57;101863.72;4847211;29;46199;-79
2023/05/16 09:43:23;;;;;;;;;1.25;1.25;;;;;13.93;56.94;101866.28;4846313;29;45829;-78
2023/05/16 09:45:49;;;;;;;;;0.00;0.00;;;;;13.82;56.63;101843.31;4861521;29;45415;-79
2023/05/16 09:48:16;;;;;;;;;1.25;1.00;;;;;14.03;56.65;101867.78;4844722;29;45918;-74
2023/05/16 09:50:51;;;;;;;;;0.25;0.25;;;;;13.98;56.66;101861.66;4844009;29;45768;-74
2023/05/16 09:53:17;;;;;;;;;2.00;2.00;;;;;14.04;56.32;101875.78;4845751;29;45642;-74
2023/05/16 09:55:43;;;;;;;;;1.50;1.00;;;;;14.06;56.53;101865.00;4847525;29;45557;-74
2023/05/16 09:58:08;;;;;;;;;1.75;1.75;;;;;14.09;55.85;101855.03;4851298;29;45466;-74
2023/05/16 10:00:33;;;;;;;;;1.00;1.00;;;;;14.12;55.58;101861.28;4853982;29;51725;-79
2023/05/16 10:03:01;;;;;;;;;1.50;1.50;;;;;14.20;55.71;101864.59;4845373;29;45498;-79
2023/05/16 10:05:27;;;;;;;;;2.00;1.75;;;;;14.25;56.14;101873.41;4845609;29;45344;-79
2023/05/16 10:07:56;;;;;;;;;3.25;2.00;;;;;14.29;55.94;101869.69;4846305;29;45698;-79
2023/05/16 10:10:23;;;;;;;;;0.25;0.25;;;;;14.33;55.59;101874.03;4846842;29;46620;-74
2023/05/16 10:12:50;;;;;;;;;4.00;0.75;;;;;14.34;55.14;101878.50;4844726;29;45756;-78
2023/05/16 10:15:16;;;;;;;;;3.00;0.50;;;;;14.37;55.75;101864.09;4845741;29;45331;-78
2023/05/16 10:17:44;;;;;;;;;1.00;1.00;;;;;14.38;55.46;101853.31;4845882;29;45446;-79
2023/05/16 10:20:11;;;;;;;;;0.75;0.00;;;;;14.48;54.56;101861.94;4844803;29;45739;-79
2023/05/16 10:22:41;;;;;;;;;1.00;1.00;;;;;14.51;54.09;101869.06;4833756;29;45325;-79
2023/05/16 10:25:11;;;;;;;;;2.00;1.00;;;;;14.49;54.00;101858.34;4843722;29;46097;-77
2023/05/16 10:27:38;;;;;;;;;2.75;2.00;;;;;14.52;54.25;101857.38;4835534;29;45454;-78
2023/05/16 10:30:05;;;;;;;;;1.00;1.00;;;;;14.56;54.94;101859.03;4846397;29;46618;-78
2023/05/16 10:32:32;;;;;;;;;2.00;1.00;;;;;14.55;53.99;101860.84;4856190;29;45814;-75
2023/05/16 10:35:02;;;;;;;;;1.00;1.00;;;;;14.56;54.79;101865.28;4847049;29;45553;-75
2023/05/16 10:37:29;;;;;;;;;2.25;1.50;;;;;14.51;52.72;101847.56;4841507;29;46215;-75
2023/05/16 10:39:55;;;;;;;;;1.00;1.00;;;;;14.39;53.52;101835.38;4845439;29;46725;-75
2023/05/16 10:42:20;;;;;;;;;2.25;1.75;;;;;14.59;54.07;101861.66;4850186;29;45442;-75
2023/05/16 10:44:46;;;;;;;;;0.75;0.00;;;;;14.64;54.36;101857.03;4846039;29;45569;-75
2023/05/16 10:47:11;;;;;;;;;1.00;1.00;;;;;14.64;53.54;101862.41;4858035;29;45460;-74
2023/05/16 10:49:40;;;;;;;;;0.00;0.00;;;;;14.63;53.90;101847.19;4845513;29;47613;-74
2023/05/16 10:52:09;;;;;;;;;1.00;1.00;;;;;14.76;53.62;101861.13;4848812;29;45720;-74
2023/05/16 10:54:36;;;;;;;;;2.00;1.00;;;;;14.78;53.32;101875.38;4843149;29;45582;-80
2023/05/16 10:57:10;;;;;;;;;1.00;1.00;;;;;14.83;53.73;101868.06;4846759;29;45593;-79
2023/05/16 10:59:41;;;;;;;;;1.00;1.00;;;;;14.87;53.83;101860.75;4839894;29;47326;-79
2023/05/16 11:02:22;;;;;;;;;1.25;1.25;;;;;14.93;53.41;101871.31;4843854;29;45514;-79
2023/05/16 11:04:49;;;;;;;;;2.50;2.00;;;;;14.97;52.92;101860.44;4845618;29;45657;-79
2023/05/16 11:07:17;;;;;;;;;2.00;2.00;;;;;14.93;53.44;101855.19;4843726;29;45801;-79
2023/05/16 11:09:44;;;;;;;;;1.00;1.00;;;;;14.90;53.45;101841.84;4842117;29;45620;-79
2023/05/16 11:12:09;;;;;;;;;1.50;1.50;;;;;15.03;53.86;101847.72;4843185;29;45520;-79
2023/05/16 11:14:43;;;;;;;;;1.25;1.25;;;;;15.07;52.86;101849.34;4841371;29;45395;-79
2023/05/16 11:17:20;;;;;;;;;1.00;1.00;;;;;15.09;52.97;101843.00;4839484;29;46359;-79
2023/05/16 11:19:51;;;;;;;;;1.00;0.25;;;;;15.12;52.84;101850.09;4839293;29;45460;-79
2023/05/16 11:22:21;;;;;;;;;3.75;1.00;;;;;15.22;53.71;101843.47;4841123;29;45683;-80
2023/05/16 11:25:00;;;;;;;;;1.00;1.00;;;;;15.30;53.20;101854.84;4844244;29;45507;-79
2023/05/16 11:27:25;;;;;;;;;1.00;1.00;;;;;15.37;53.04;101851.00;4849443;29;45776;-79
2023/05/16 11:29:51;;;;;;;;;2.75;2.00;;;;;15.42;53.07;101858.03;4840082;29;46044;-74
2023/05/16 11:32:22;;;;;;;;;2.00;2.00;;;;;15.42;51.78;101856.25;4841387;29;45316;-75
2023/05/16 11:34:48;;;;;;;;;3.50;1.00;;;;;15.46;51.61;101848.94;4848263;29;45312;-75
2023/05/16 11:37:14;;;;;;;;;1.00;1.00;;;;;15.54;51.62;101852.25;4848225;29;45509;-74
2023/05/16 11:39:40;;;;;;;;;2.25;2.00;;;;;15.59;52.13;101858.34;4842841;29;45482;-75
2023/05/16 11:42:05;;;;;;;;;4.50;1.00;;;;;15.60;51.65;101840.38;4841961;29;45356;-75